createdAt,value
2022-10-07T00:00:52.786Z,4.40
2022-10-07T00:03:22.342Z,5.05
2022-10-07T00:06:00.804Z,4.82
2022-10-07T00:08:27.810Z,5.22
2022-10-07T00:10:55.361Z,3.97
2022-10-07T00:13:23.604Z,4.80
2022-10-07T00:15:50.489Z,3.88
2022-10-07T00:18:17.162Z,4.20
2022-10-07T00:20:44.086Z,5.80
2022-10-07T00:23:10.973Z,5.38
2022-10-07T00:25:37.968Z,4.85
2022-10-07T00:28:05.621Z,5.13
2022-10-07T00:30:32.885Z,5.93
2022-10-07T00:33:00.114Z,5.32
2022-10-07T00:35:27.029Z,3.92
2022-10-07T00:37:54.088Z,4.65
2022-10-07T00:40:20.916Z,4.60
2022-10-07T00:42:47.784Z,4.97
2022-10-07T00:45:16.683Z,4.25
2022-10-07T00:47:47.440Z,4.55
2022-10-07T00:50:19.375Z,6.03
2022-10-07T00:52:51.871Z,4.75
2022-10-07T00:55:23.530Z,5.10
2022-10-07T00:57:53.329Z,4.53
2022-10-07T01:00:23.671Z,4.90
2022-10-07T01:02:51.388Z,5.72
2022-10-07T01:05:18.567Z,3.88
2022-10-07T01:07:47.792Z,4.65
2022-10-07T01:10:20.233Z,4.80
2022-10-07T01:13:14.623Z,4.55
2022-10-07T01:15:53.526Z,4.47
2022-10-07T01:18:39.877Z,4.97
2022-10-07T01:21:16.739Z,4.60
2022-10-07T01:24:01.459Z,4.15
2022-10-07T01:26:55.595Z,6.35
2022-10-07T01:29:31.442Z,3.80
2022-10-07T01:32:13.141Z,4.93
2022-10-07T01:34:43.212Z,4.07
2022-10-07T01:37:12.636Z,5.55
2022-10-07T01:39:45.742Z,5.18
2022-10-07T01:42:12.652Z,5.18
2022-10-07T01:44:40.443Z,4.40
2022-10-07T01:47:07.554Z,4.15
2022-10-07T01:49:34.615Z,3.95
2022-10-07T01:52:17.789Z,4.72
2022-10-07T01:55:21.770Z,3.70
2022-10-07T01:58:07.182Z,4.43
2022-10-07T02:00:38.473Z,3.78
2022-10-07T02:03:24.126Z,5.43
2022-10-07T02:05:54.574Z,4.30
2022-10-07T02:08:42.514Z,4.03
2022-10-07T02:11:29.307Z,4.25
2022-10-07T02:14:02.268Z,5.95
2022-10-07T02:16:33.487Z,4.47
2022-10-07T02:19:04.508Z,4.57
2022-10-07T02:21:36.018Z,4.45
2022-10-07T02:24:04.420Z,4.80
2022-10-07T02:26:34.280Z,4.30
2022-10-07T02:29:05.248Z,4.32
2022-10-07T02:31:34.858Z,4.63
2022-10-07T02:34:05.835Z,4.10
2022-10-07T02:36:36.141Z,4.55
2022-10-07T02:39:03.899Z,6.72
2022-10-07T02:41:36.624Z,3.92
2022-10-07T02:44:46.638Z,5.72
2022-10-07T02:47:37.624Z,4.80
2022-10-07T02:50:11.133Z,5.07
2022-10-07T02:52:41.293Z,4.90
2022-10-07T02:55:10.631Z,4.05
2022-10-07T02:57:46.598Z,4.03
2022-10-07T03:00:14.411Z,5.00
2022-10-07T03:02:44.606Z,4.03
2022-10-07T03:05:12.805Z,4.03
2022-10-07T03:07:39.883Z,4.85
2022-10-07T03:10:09.350Z,3.63
2022-10-07T03:12:36.063Z,6.20
2022-10-07T03:15:03.138Z,3.40
2022-10-07T03:17:30.003Z,6.43
2022-10-07T03:19:56.759Z,4.82
2022-10-07T03:22:23.432Z,5.65
2022-10-07T03:24:50.231Z,3.80
2022-10-07T03:27:17.139Z,3.72
2022-10-07T03:29:44.056Z,4.50
2022-10-07T03:32:11.319Z,4.97
2022-10-07T03:34:38.573Z,4.80
2022-10-07T03:37:05.463Z,4.55
2022-10-07T03:39:32.396Z,4.43
2022-10-07T03:41:59.128Z,4.70
2022-10-07T03:44:25.991Z,4.63
2022-10-07T03:46:53.218Z,4.70
2022-10-07T03:49:20.462Z,4.22
2022-10-07T03:51:47.835Z,3.42
2022-10-07T03:54:14.847Z,4.07
2022-10-07T03:56:41.650Z,4.72
2022-10-07T03:59:08.509Z,3.83
2022-10-07T04:01:36.286Z,4.50
2022-10-07T04:04:03.171Z,5.10
2022-10-07T04:06:31.399Z,5.22
2022-10-07T04:08:58.335Z,5.20
2022-10-07T04:11:25.503Z,4.30
2022-10-07T04:13:52.815Z,4.65
2022-10-07T04:16:20.125Z,5.47
2022-10-07T04:18:47.504Z,4.55
2022-10-07T04:21:14.425Z,3.78
2022-10-07T04:23:42.485Z,4.65
2022-10-07T04:26:11.707Z,4.18
2022-10-07T04:28:39.258Z,6.13
2022-10-07T04:31:08.990Z,4.40
2022-10-07T04:33:40.289Z,4.72
2022-10-07T04:36:10.607Z,3.90
2022-10-07T04:38:37.459Z,4.70
2022-10-07T04:41:07.027Z,4.53
2022-10-07T04:43:34.455Z,3.83
2022-10-07T04:46:09.768Z,5.10
2022-10-07T04:48:36.746Z,4.35
2022-10-07T04:51:06.455Z,4.82
2022-10-07T04:53:33.963Z,3.85
2022-10-07T04:56:01.249Z,5.03
2022-10-07T04:58:28.807Z,4.72
2022-10-07T05:00:56.893Z,3.85
2022-10-07T05:03:26.010Z,5.25
2022-10-07T05:05:55.614Z,3.95
2022-10-07T05:08:27.295Z,5.05
2022-10-07T05:10:56.025Z,4.28
2022-10-07T05:13:26.314Z,3.63
2022-10-07T05:15:58.645Z,4.25
2022-10-07T05:18:27.254Z,5.10
2022-10-07T05:20:54.234Z,4.22
2022-10-07T05:23:27.865Z,4.30
2022-10-07T05:26:00.301Z,4.47
2022-10-07T05:32:36.830Z,3.58
2022-10-07T05:36:03.602Z,4.95
2022-10-07T05:38:31.608Z,3.80
2022-10-07T05:41:04.258Z,4.30
2022-10-07T05:43:33.554Z,5.50
2022-10-07T05:46:05.653Z,4.75
2022-10-07T05:48:38.734Z,4.70
2022-10-07T05:51:09.727Z,4.75
2022-10-07T05:53:36.489Z,4.40
2022-10-07T05:56:07.649Z,5.13
2022-10-07T05:58:38.946Z,4.03
2022-10-07T06:01:13.789Z,4.47
2022-10-07T06:06:09.160Z,4.20
2022-10-07T06:08:36.822Z,4.18
2022-10-07T06:11:23.879Z,4.13
2022-10-07T06:13:54.839Z,5.13
2022-10-07T06:16:23.420Z,5.53
2022-10-07T06:18:52.628Z,4.72
2022-10-07T06:21:28.333Z,4.65
2022-10-07T06:23:56.978Z,4.60
2022-10-07T06:26:24.286Z,4.10
2022-10-07T06:28:51.140Z,5.05
2022-10-07T06:31:22.804Z,4.32
2022-10-07T06:33:50.155Z,4.43
2022-10-07T06:36:17.872Z,4.25
2022-10-07T06:38:46.115Z,4.05
2022-10-07T06:41:13.300Z,4.40
2022-10-07T06:43:40.311Z,5.07
2022-10-07T06:46:10.259Z,5.47
2022-10-07T06:48:40.621Z,4.15
2022-10-07T06:51:13.873Z,4.90
2022-10-07T06:53:40.851Z,4.57
2022-10-07T06:56:09.061Z,4.47
2022-10-07T06:58:35.967Z,4.40
2022-10-07T07:01:03.284Z,4.45
2022-10-07T07:03:30.465Z,4.50
2022-10-07T07:05:57.589Z,4.47
2022-10-07T07:08:32.150Z,3.88
2022-10-07T07:11:04.403Z,4.72
2022-10-07T07:13:31.227Z,5.05
2022-10-07T07:16:00.308Z,3.65
2022-10-07T07:18:27.037Z,4.13
2022-10-07T07:20:53.635Z,4.82
2022-10-07T07:23:20.520Z,4.47
2022-10-07T07:25:49.822Z,4.43
2022-10-07T07:28:16.738Z,4.13
2022-10-07T07:30:43.730Z,4.68
2022-10-07T07:33:10.609Z,3.95
2022-10-07T07:35:41.625Z,3.25
2022-10-07T07:38:09.508Z,4.10
2022-10-07T07:40:38.691Z,3.85
2022-10-07T07:43:06.607Z,4.20
2022-10-07T07:45:36.943Z,3.83
2022-10-07T07:48:04.807Z,3.50
2022-10-07T07:50:31.564Z,3.78
2022-10-07T07:53:00.342Z,3.72
2022-10-07T07:55:27.214Z,3.97
2022-10-07T07:57:54.153Z,4.75
2022-10-07T08:00:21.120Z,3.67
2022-10-07T08:02:48.023Z,4.18
2022-10-07T08:05:14.915Z,3.53
2022-10-07T08:07:41.660Z,3.65
2022-10-07T08:10:08.966Z,3.40
2022-10-07T08:12:35.792Z,4.22
2022-10-07T08:15:02.599Z,4.45
2022-10-07T08:17:29.367Z,4.13
2022-10-07T08:19:56.394Z,3.45
2022-10-07T08:22:23.190Z,3.78
2022-10-07T08:24:50.024Z,4.50
2022-10-07T08:27:16.909Z,3.78
2022-10-07T08:29:43.683Z,3.63
2022-10-07T08:32:10.768Z,3.72
2022-10-07T08:34:37.591Z,4.28
2022-10-07T08:37:04.464Z,3.53
2022-10-07T08:39:31.397Z,4.53
2022-10-07T08:42:13.652Z,2.97
2022-10-07T08:44:44.294Z,4.18
2022-10-07T08:47:34.841Z,3.55
2022-10-07T08:50:26.187Z,3.33
2022-10-07T08:52:59.495Z,3.75
2022-10-07T08:55:43.938Z,3.08
2022-10-07T08:58:41.127Z,3.00
2022-10-07T09:01:26.852Z,3.90
2022-10-07T09:04:06.427Z,3.58
2022-10-07T09:06:43.058Z,3.15
2022-10-07T09:09:22.179Z,3.53
2022-10-07T09:11:50.282Z,4.03
2022-10-07T09:14:34.638Z,3.03
2022-10-07T09:17:08.482Z,3.50
2022-10-07T09:19:45.959Z,3.50
2022-10-07T09:22:31.504Z,3.22
2022-10-07T09:25:13.932Z,3.40
2022-10-07T09:27:40.751Z,3.45
2022-10-07T09:30:12.448Z,4.05
2022-10-07T09:32:42.695Z,3.00
2022-10-07T09:35:18.349Z,3.55
2022-10-07T09:37:58.158Z,3.28
2022-10-07T09:40:35.746Z,3.35
2022-10-07T09:43:11.001Z,3.22
2022-10-07T09:48:07.853Z,3.17
2022-10-07T09:50:41.604Z,3.95
2022-10-07T09:53:24.986Z,3.10
2022-10-07T09:55:54.401Z,3.17
2022-10-07T09:58:26.461Z,3.65
2022-10-07T10:00:55.968Z,3.13
2022-10-07T10:03:33.401Z,3.28
2022-10-07T10:06:02.848Z,3.67
2022-10-07T10:08:34.424Z,3.22
2022-10-07T10:11:05.119Z,2.25
2022-10-07T10:13:36.376Z,3.00
2022-10-07T10:16:07.145Z,2.97
2022-10-07T10:18:38.783Z,3.33
2022-10-07T10:21:19.957Z,2.92
2022-10-07T10:23:49.601Z,1.75
2022-10-07T10:26:43.699Z,2.55
2022-10-07T10:29:46.804Z,2.83
2022-10-07T10:32:49.660Z,3.00
2022-10-07T10:35:31.243Z,2.78
2022-10-07T10:38:27.743Z,3.03
2022-10-07T10:41:00.422Z,2.80
2022-10-07T10:43:47.855Z,2.75
2022-10-07T10:46:34.897Z,2.65
2022-10-07T10:49:19.942Z,3.17
2022-10-07T10:52:18.358Z,2.28
2022-10-07T10:55:13.642Z,2.50
2022-10-07T10:57:59.997Z,2.30
2022-10-07T11:00:35.742Z,2.58
2022-10-07T11:03:28.784Z,2.60
2022-10-07T11:05:56.366Z,2.55
2022-10-07T11:08:28.126Z,3.38
2022-10-07T11:10:57.725Z,2.45
2022-10-07T11:13:30.825Z,3.92
2022-10-07T11:16:06.445Z,2.60
2022-10-07T11:18:36.249Z,3.03
2022-10-07T11:21:08.881Z,2.30
2022-10-07T11:23:47.779Z,3.25
2022-10-07T11:26:24.511Z,2.95
2022-10-07T11:28:52.112Z,2.88
2022-10-07T11:31:27.749Z,2.72
2022-10-07T11:33:57.616Z,2.30
2022-10-07T11:36:47.859Z,2.95
2022-10-07T11:39:15.247Z,2.90
2022-10-07T11:41:55.063Z,3.35
2022-10-07T11:44:30.197Z,2.30
2022-10-07T11:49:49.076Z,2.78
2022-10-07T11:52:26.835Z,2.63
2022-10-07T11:55:03.401Z,2.78
2022-10-07T11:57:34.685Z,2.55
2022-10-07T12:00:08.389Z,2.53
2022-10-07T12:02:45.023Z,2.67
2022-10-07T12:05:34.104Z,2.58
2022-10-07T12:08:34.378Z,2.15
2022-10-07T12:11:13.051Z,2.08
2022-10-07T12:13:41.371Z,2.47
2022-10-07T12:16:32.633Z,2.65
2022-10-07T12:19:08.221Z,2.50
2022-10-07T12:22:03.697Z,3.63
2022-10-07T12:24:36.264Z,2.50
2022-10-07T12:27:26.156Z,2.28
2022-10-07T12:30:02.821Z,2.78
2022-10-07T12:32:49.081Z,2.58
2022-10-07T12:35:40.027Z,3.60
2022-10-07T12:38:17.568Z,2.10
2022-10-07T12:41:13.354Z,3.10
2022-10-07T12:43:59.544Z,1.95
2022-10-07T12:46:31.319Z,2.00
2022-10-07T12:49:05.335Z,2.47
2022-10-07T12:51:40.541Z,2.55
2022-10-07T12:54:16.251Z,2.40
2022-10-07T12:56:44.886Z,2.17
2022-10-07T12:59:42.253Z,2.53
2022-10-07T13:02:24.438Z,2.17
2022-10-07T13:04:51.568Z,2.45
2022-10-07T13:07:24.536Z,2.83
2022-10-07T13:10:10.007Z,2.60
2022-10-07T13:12:44.318Z,2.47
2022-10-07T13:15:23.540Z,2.47
2022-10-07T13:18:10.609Z,2.83
2022-10-07T13:20:56.719Z,1.98
2022-10-07T13:25:57.722Z,2.15
2022-10-07T13:28:30.807Z,2.13
2022-10-07T13:31:22.140Z,2.50
2022-10-07T13:33:50.883Z,1.80
2022-10-07T13:36:26.655Z,2.15
2022-10-07T13:39:10.241Z,1.83
2022-10-07T13:41:38.563Z,3.20
2022-10-07T13:44:06.622Z,2.28
2022-10-07T13:46:36.109Z,1.55
2022-10-07T13:49:03.406Z,2.28
2022-10-07T13:51:41.067Z,1.95
2022-10-07T13:54:18.264Z,1.95
2022-10-07T13:56:46.071Z,2.30
2022-10-07T13:59:21.087Z,2.17
2022-10-07T14:01:51.433Z,2.67
2022-10-07T14:04:20.368Z,2.20
2022-10-07T14:06:52.523Z,1.90
2022-10-07T14:09:26.527Z,2.60
2022-10-07T14:11:59.088Z,2.33
2022-10-07T14:14:35.566Z,2.35
2022-10-07T14:17:09.423Z,2.35
2022-10-07T14:19:37.538Z,2.10
2022-10-07T14:22:14.670Z,2.35
2022-10-07T14:24:41.991Z,2.67
2022-10-07T14:27:53.765Z,2.45
2022-10-07T14:30:29.087Z,2.00
2022-10-07T14:33:31.396Z,2.63
2022-10-07T14:36:17.981Z,2.35
2022-10-07T14:38:48.419Z,3.03
2022-10-07T14:41:17.776Z,3.15
2022-10-07T14:43:47.780Z,3.38
2022-10-07T14:46:23.756Z,3.05
2022-10-07T14:48:53.737Z,3.20
2022-10-07T14:51:23.680Z,2.72
2022-10-07T14:53:54.290Z,5.35
2022-10-07T14:56:39.085Z,3.33
2022-10-07T14:59:15.587Z,3.33
2022-10-07T15:01:42.687Z,3.92
2022-10-07T15:04:11.438Z,4.82
2022-10-07T15:06:38.679Z,3.22
2022-10-07T15:09:05.571Z,3.03
2022-10-07T15:11:32.623Z,2.70
2022-10-07T15:13:59.225Z,3.05
2022-10-07T15:16:28.182Z,3.13
2022-10-07T15:18:55.199Z,2.90
2022-10-07T15:21:22.609Z,2.50
2022-10-07T15:23:56.447Z,2.83
2022-10-07T15:26:24.849Z,2.53
2022-10-07T15:28:56.831Z,2.72
2022-10-07T15:31:26.656Z,3.05
2022-10-07T15:33:58.040Z,2.47
2022-10-07T15:36:30.076Z,2.35
2022-10-07T15:39:02.320Z,2.33
2022-10-07T15:41:33.656Z,2.88
2022-10-07T15:44:02.951Z,2.90
2022-10-07T15:46:30.063Z,2.17
2022-10-07T15:48:58.510Z,2.50
2022-10-07T15:51:26.983Z,2.22
2022-10-07T15:53:54.082Z,2.10
2022-10-07T15:56:21.151Z,2.60
2022-10-07T15:58:48.021Z,2.20
2022-10-07T16:01:16.317Z,2.38
2022-10-07T16:03:45.598Z,2.72
2022-10-07T16:06:18.249Z,2.67
2022-10-07T16:08:45.084Z,2.38
2022-10-07T16:11:12.591Z,2.20
2022-10-07T16:13:41.907Z,2.17
2022-10-07T16:16:11.773Z,1.92
2022-10-07T16:18:41.011Z,2.20
2022-10-07T16:21:10.657Z,2.10
2022-10-07T16:23:40.495Z,2.15
2022-10-07T16:26:13.092Z,2.10
2022-10-07T16:29:00.602Z,2.75
2022-10-07T16:31:29.902Z,2.40
2022-10-07T16:33:57.146Z,2.38
2022-10-07T16:36:25.595Z,2.33
2022-10-07T16:38:54.278Z,2.00
2022-10-07T16:41:21.754Z,2.00
2022-10-07T16:43:48.994Z,2.05
2022-10-07T16:46:18.790Z,2.33
2022-10-07T16:48:47.977Z,2.45
2022-10-07T16:51:17.569Z,3.60
2022-10-07T16:53:46.262Z,2.63
2022-10-07T16:56:13.779Z,2.40
2022-10-07T16:58:40.694Z,2.15
2022-10-07T17:01:12.883Z,2.20
2022-10-07T17:03:41.847Z,2.25
2022-10-07T17:06:15.475Z,1.88
2022-10-07T17:08:47.427Z,2.13
2022-10-07T17:11:29.697Z,3.72
2022-10-07T17:13:59.824Z,2.38
2022-10-07T17:16:29.573Z,2.60
2022-10-07T17:18:57.011Z,3.63
2022-10-07T17:21:24.059Z,2.90
2022-10-07T17:23:54.551Z,2.20
2022-10-07T17:26:21.294Z,3.72
2022-10-07T17:28:49.930Z,2.47
2022-10-07T17:31:18.289Z,2.95
2022-10-07T17:33:45.513Z,2.75
2022-10-07T17:36:13.034Z,2.55
2022-10-07T17:38:44.785Z,3.05
2022-10-07T17:41:19.495Z,2.30
2022-10-07T17:43:47.179Z,2.35
2022-10-07T17:46:17.328Z,2.30
2022-10-07T17:48:49.230Z,3.35
2022-10-07T17:51:17.963Z,2.17
2022-10-07T17:53:45.354Z,2.17
2022-10-07T17:56:15.886Z,2.45
2022-10-07T17:58:44.935Z,2.85
2022-10-07T18:01:22.802Z,2.78
2022-10-07T18:03:52.346Z,2.15
2022-10-07T18:06:19.867Z,2.65
2022-10-07T18:08:48.172Z,2.40
2022-10-07T18:11:17.781Z,2.33
2022-10-07T18:14:03.364Z,2.20
2022-10-07T18:16:34.877Z,2.33
2022-10-07T18:19:02.498Z,2.45
2022-10-07T18:21:31.225Z,2.10
2022-10-07T18:23:59.060Z,1.63
2022-10-07T18:26:25.933Z,2.40
2022-10-07T18:28:52.809Z,2.30
2022-10-07T18:31:20.421Z,3.35
2022-10-07T18:33:47.415Z,2.38
2022-10-07T18:36:16.667Z,3.13
2022-10-07T18:38:44.788Z,2.22
2022-10-07T18:41:14.959Z,2.10
2022-10-07T18:43:43.799Z,2.83
2022-10-07T18:46:14.237Z,2.30
2022-10-07T18:48:43.383Z,2.42
2022-10-07T18:51:12.298Z,2.42
2022-10-07T18:53:41.819Z,2.20
2022-10-07T18:56:12.220Z,2.30
2022-10-07T18:58:41.634Z,3.53
2022-10-07T19:01:14.043Z,2.30
2022-10-07T19:03:41.360Z,2.92
2022-10-07T19:06:11.431Z,2.40
2022-10-07T19:08:38.350Z,3.05
2022-10-07T19:11:15.887Z,3.25
2022-10-07T19:13:53.787Z,2.45
2022-10-07T19:16:35.393Z,2.78
2022-10-07T19:19:26.686Z,3.17
2022-10-07T19:21:55.299Z,2.65
2022-10-07T19:24:45.046Z,2.30
2022-10-07T19:27:11.911Z,3.45
2022-10-07T19:29:38.511Z,2.65
2022-10-07T19:32:08.667Z,3.30
2022-10-07T19:34:35.776Z,2.35
2022-10-07T19:37:03.194Z,3.28
2022-10-07T19:39:30.194Z,3.75
2022-10-07T19:41:58.929Z,2.20
2022-10-07T19:44:25.743Z,2.28
2022-10-07T19:46:54.249Z,2.20
2022-10-07T19:49:21.241Z,2.50
2022-10-07T19:51:47.836Z,2.00
2022-10-07T19:54:14.482Z,3.00
2022-10-07T19:56:41.374Z,2.42
2022-10-07T19:59:10.977Z,3.58
2022-10-07T20:01:43.743Z,2.42
2022-10-07T20:04:21.044Z,2.72
2022-10-07T20:06:48.850Z,2.45
2022-10-07T20:09:17.908Z,2.78
2022-10-07T20:11:45.644Z,2.47
2022-10-07T20:14:15.326Z,2.45
2022-10-07T20:16:42.798Z,1.95
2022-10-07T20:19:18.555Z,2.35
2022-10-07T20:21:45.767Z,2.63
2022-10-07T20:24:14.685Z,2.78
2022-10-07T20:26:42.979Z,3.00
2022-10-07T20:29:11.875Z,2.05
2022-10-07T20:31:40.474Z,3.28
2022-10-07T20:34:12.066Z,1.95
2022-10-07T20:36:39.661Z,2.65
2022-10-07T20:39:36.212Z,2.00
2022-10-07T20:42:21.702Z,1.90
2022-10-07T20:44:49.826Z,2.20
2022-10-07T20:47:18.171Z,2.33
2022-10-07T20:49:45.019Z,2.53
2022-10-07T20:52:17.120Z,2.42
2022-10-07T20:54:45.010Z,2.13
2022-10-07T20:57:13.606Z,2.50
2022-10-07T20:59:40.415Z,2.58
2022-10-07T21:02:09.729Z,1.80
2022-10-07T21:04:37.711Z,2.38
2022-10-07T21:07:04.714Z,1.92
2022-10-07T21:09:36.427Z,2.38
2022-10-07T21:12:05.134Z,2.00
2022-10-07T21:14:31.798Z,2.05
2022-10-07T21:16:58.992Z,2.33
2022-10-07T21:19:26.176Z,2.55
2022-10-07T21:21:53.122Z,2.35
2022-10-07T21:24:19.885Z,2.30
2022-10-07T21:26:47.714Z,2.70
2022-10-07T21:29:14.742Z,1.95
2022-10-07T21:31:42.563Z,3.30
2022-10-07T21:34:10.163Z,2.63
2022-10-07T21:36:40.122Z,2.83
2022-10-07T21:39:07.724Z,2.65
2022-10-07T21:41:37.684Z,2.50
2022-10-07T21:44:06.928Z,2.90
2022-10-07T21:46:37.335Z,2.22
2022-10-07T21:49:06.314Z,3.70
2022-10-07T21:51:34.523Z,2.78
2022-10-07T21:54:02.527Z,2.65
2022-10-07T21:56:32.291Z,2.90
2022-10-07T21:59:01.618Z,2.38
2022-10-07T22:01:29.257Z,3.17
2022-10-07T22:03:58.415Z,3.65
2022-10-07T22:06:45.215Z,3.05
2022-10-07T22:09:13.908Z,2.75
2022-10-07T22:11:40.798Z,4.18
2022-10-07T22:14:12.266Z,2.70
2022-10-07T22:16:40.814Z,3.22
2022-10-07T22:19:07.599Z,2.75
2022-10-07T22:21:39.314Z,3.10
2022-10-07T22:24:07.969Z,2.20
2022-10-07T22:26:45.520Z,2.63
2022-10-07T22:29:14.939Z,2.58
2022-10-07T22:31:42.118Z,2.28
2022-10-07T22:34:29.402Z,2.15
2022-10-07T22:36:58.926Z,2.30
2022-10-07T22:39:26.803Z,2.72
2022-10-07T22:41:53.785Z,2.47
2022-10-07T22:44:20.764Z,3.65
2022-10-07T22:46:47.587Z,2.55
2022-10-07T22:49:15.187Z,2.47
2022-10-07T22:51:42.702Z,3.58
2022-10-07T22:54:12.342Z,2.80
2022-10-07T22:56:39.623Z,3.53
2022-10-07T22:59:08.164Z,2.63
2022-10-07T23:01:35.562Z,2.80
2022-10-07T23:04:03.482Z,2.65
2022-10-07T23:06:33.020Z,3.63
2022-10-07T23:09:00.793Z,2.55
2022-10-07T23:11:29.490Z,3.60
2022-10-07T23:13:56.713Z,2.67
2022-10-07T23:16:27.161Z,3.28
2022-10-07T23:18:54.200Z,2.25
2022-10-07T23:21:26.776Z,2.55
2022-10-07T23:24:07.015Z,2.78
2022-10-07T23:26:35.331Z,2.50
2022-10-07T23:29:02.490Z,2.53
2022-10-07T23:31:31.967Z,1.98
2022-10-07T23:34:00.542Z,3.10
2022-10-07T23:36:27.960Z,2.45
2022-10-07T23:38:54.870Z,2.00
2022-10-07T23:41:24.767Z,2.35
2022-10-07T23:43:52.714Z,2.47
2022-10-07T23:46:20.984Z,2.72
2022-10-07T23:48:47.857Z,3.95
2022-10-07T23:51:18.957Z,2.13
2022-10-07T23:53:46.711Z,2.13
2022-10-07T23:56:14.573Z,1.98
2022-10-07T23:58:41.512Z,1.83
